Asian Infinity — 3EVP3 — position and weather

sailwx.info

Track history (hours):
 
Tides and Currents Weather Stations Pressure Air Temp Water Temp Dewpoint Dewpoint Depression Visibility Wind Speed Wind Dir Waves Ship Positions

Asian Infinity

Last reported at 2015-Jul-03 10:34 UTC. Time now 2015-Jul-03 10:37 UTC.
Position N 35°28' E 139°42'.

Length 104 m; draft 5.5 m.

Type: Cargo ship. MMSI: 351868000.

Date/timePositionNaut miles runAvg speedWind from/ knotsBaromVisibWave heightAir tempDewpointWater temp
2015-Jul-03 10:34N 35°28' E 139°42'0 0.0
2015-Jul-03 09:33N 35°28' E 139°42'0 0.0
2015-Jul-03 08:34N 35°28' E 139°42'0 0.0
2015-Jul-03 07:33N 35°28' E 139°42'0 0.0
2015-Jul-03 06:33N 35°28' E 139°42'0 0.0
2015-Jul-03 05:34N 35°28' E 139°42'0 0.0
2015-Jul-03 04:34N 35°28' E 139°42'0 0.0
2015-Jul-03 03:33N 35°28' E 139°42'0 0.0
2015-Jul-03 02:33N 35°28' E 139°42'0 0.0
2015-Jul-03 01:33N 35°28' E 139°42'0 0.0
2015-Jul-03 00:30N 35°28' E 139°42'0 0.1
2015-Jul-02 23:33N 35°28' E 139°42'2 1.7
2015-Jul-02 22:33N 35°26' E 139°43'0 0.0
2015-Jul-02 21:33N 35°26' E 139°43'0 0.1
2015-Jul-02 20:33N 35°27' E 139°43'0 0.0
2015-Jul-02 19:33N 35°27' E 139°43'0 0.0
2015-Jul-02 18:33N 35°27' E 139°43'0 0.0
2015-Jul-02 17:33N 35°27' E 139°43'0 0.0
2015-Jul-02 16:33N 35°27' E 139°43'0 0.1
2015-Jul-02 15:33N 35°27' E 139°43'0 0.1
2015-Jul-02 14:30N 35°27' E 139°43'0 0.0
2015-Jul-02 13:33N 35°27' E 139°43'0 0.1
2015-Jul-02 12:33N 35°26' E 139°43'0 0.1
2015-Jul-02 11:33N 35°26' E 139°43'0 0.0
2015-Jul-02 10:33N 35°26' E 139°43'0 0.0
2015-Jul-02 09:33N 35°26' E 139°43'0 0.1
2015-Jul-02 08:33N 35°27' E 139°43'0 0.0
2015-Jul-02 07:33N 35°27' E 139°43'0 0.0
2015-Jul-02 06:33N 35°27' E 139°43'0 0.0
2015-Jul-02 05:33N 35°27' E 139°43'0 0.0
2015-Jul-02 04:33N 35°27' E 139°43'0 0.0
2015-Jul-02 03:33N 35°27' E 139°43'0 0.0
2015-Jul-02 02:33N 35°27' E 139°43'0 0.1
2015-Jul-02 01:33N 35°26' E 139°43'0 0.0
2015-Jul-02 00:33N 35°26' E 139°43'0 0.0
2015-Jul-01 23:33N 35°26' E 139°43'0 0.0
2015-Jul-01 22:33N 35°26' E 139°43'0 0.0
2015-Jul-01 21:33N 35°26' E 139°43'0 0.0
2015-Jul-01 20:33N 35°26' E 139°43'0 0.0
2015-Jul-01 19:21N 35°26' E 139°43'0 0.0
2015-Jul-01 18:33N 35°26' E 139°43'0 0.0
2015-Jul-01 17:30N 35°26' E 139°43'0 0.0
2015-Jul-01 16:33N 35°26' E 139°43'0 0.0
2015-Jul-01 15:27N 35°26' E 139°43'0 0.1
2015-Jul-01 14:33N 35°26' E 139°43'0 0.0
2015-Jul-01 13:27N 35°26' E 139°43'0 0.1
2015-Jul-01 12:32N 35°26' E 139°43'0 0.0
2015-Jul-01 11:31N 35°26' E 139°43'0 0.1
2015-Jul-01 10:30N 35°26' E 139°43'0 0.1
2015-Jul-01 09:27N 35°26' E 139°43'0 0.1
2015-Jul-01 08:32N 35°27' E 139°43'0 0.0
2015-Jul-01 07:33N 35°27' E 139°43'0 0.0
2015-Jul-01 06:34N 35°27' E 139°43'0 0.0
2015-Jul-01 05:34N 35°27' E 139°43'0 0.0
2015-Jul-01 04:33N 35°27' E 139°43'0 0.0
2015-Jul-01 03:33N 35°27' E 139°43'2 2.2
2015-Jul-01 02:33N 35°26' E 139°45'5 4.9
2015-Jul-01 01:32N 35°21' E 139°45'8 8.2
2015-Jul-01 00:33N 35°14' E 139°47'9 9.4
2015-Jun-30 23:33N 35°05' E 139°43'1111.1
2015-Jun-30 22:32N 34°58' E 139°32'  
2015-Jun-28 12:25N 34°00' E 130°50'  
Track history (hours):
 
Tides and Currents Weather Stations Pressure Air Temp Water Temp Dewpoint Dewpoint Depression Visibility Wind Speed Wind Dir Waves Ship Positions

Asian Infinity

Last reported at 2015-Jul-03 10:34 UTC. Time now 2015-Jul-03 10:37 UTC.
Position N 35°28' E 139°42'.

Length 104 m; draft 5.5 m.

Type: Cargo ship. MMSI: 351868000.

Date/timePositionNaut miles runAvg speedWind from/ knotsBaromVisibWave heightAir tempDewpointWater temp
2015-Jul-03 10:34N 35°28' E 139°42'0 0.0
2015-Jul-03 09:33N 35°28' E 139°42'0 0.0
2015-Jul-03 08:34N 35°28' E 139°42'0 0.0
2015-Jul-03 07:33N 35°28' E 139°42'0 0.0
2015-Jul-03 06:33N 35°28' E 139°42'0 0.0
2015-Jul-03 05:34N 35°28' E 139°42'0 0.0
2015-Jul-03 04:34N 35°28' E 139°42'0 0.0
2015-Jul-03 03:33N 35°28' E 139°42'0 0.0
2015-Jul-03 02:33N 35°28' E 139°42'0 0.0
2015-Jul-03 01:33N 35°28' E 139°42'0 0.0
2015-Jul-03 00:30N 35°28' E 139°42'0 0.1
2015-Jul-02 23:33N 35°28' E 139°42'2 1.7
2015-Jul-02 22:33N 35°26' E 139°43'0 0.0
2015-Jul-02 21:33N 35°26' E 139°43'0 0.1
2015-Jul-02 20:33N 35°27' E 139°43'0 0.0
2015-Jul-02 19:33N 35°27' E 139°43'0 0.0
2015-Jul-02 18:33N 35°27' E 139°43'0 0.0
2015-Jul-02 17:33N 35°27' E 139°43'0 0.0
2015-Jul-02 16:33N 35°27' E 139°43'0 0.1
2015-Jul-02 15:33N 35°27' E 139°43'0 0.1
2015-Jul-02 14:30N 35°27' E 139°43'0 0.0
2015-Jul-02 13:33N 35°27' E 139°43'0 0.1
2015-Jul-02 12:33N 35°26' E 139°43'0 0.1
2015-Jul-02 11:33N 35°26' E 139°43'0 0.0
2015-Jul-02 10:33N 35°26' E 139°43'0 0.0
2015-Jul-02 09:33N 35°26' E 139°43'0 0.1
2015-Jul-02 08:33N 35°27' E 139°43'0 0.0
2015-Jul-02 07:33N 35°27' E 139°43'0 0.0
2015-Jul-02 06:33N 35°27' E 139°43'0 0.0
2015-Jul-02 05:33N 35°27' E 139°43'0 0.0
2015-Jul-02 04:33N 35°27' E 139°43'0 0.0
2015-Jul-02 03:33N 35°27' E 139°43'0 0.0
2015-Jul-02 02:33N 35°27' E 139°43'0 0.1
2015-Jul-02 01:33N 35°26' E 139°43'0 0.0
2015-Jul-02 00:33N 35°26' E 139°43'0 0.0
2015-Jul-01 23:33N 35°26' E 139°43'0 0.0
2015-Jul-01 22:33N 35°26' E 139°43'0 0.0
2015-Jul-01 21:33N 35°26' E 139°43'0 0.0
2015-Jul-01 20:33N 35°26' E 139°43'0 0.0
2015-Jul-01 19:21N 35°26' E 139°43'0 0.0
2015-Jul-01 18:33N 35°26' E 139°43'0 0.0
2015-Jul-01 17:30N 35°26' E 139°43'0 0.0
2015-Jul-01 16:33N 35°26' E 139°43'0 0.0
2015-Jul-01 15:27N 35°26' E 139°43'0 0.1
2015-Jul-01 14:33N 35°26' E 139°43'0 0.0
2015-Jul-01 13:27N 35°26' E 139°43'0 0.1
2015-Jul-01 12:32N 35°26' E 139°43'0 0.0
2015-Jul-01 11:31N 35°26' E 139°43'0 0.1
2015-Jul-01 10:30N 35°26' E 139°43'0 0.1
2015-Jul-01 09:27N 35°26' E 139°43'0 0.1
2015-Jul-01 08:32N 35°27' E 139°43'0 0.0
2015-Jul-01 07:33N 35°27' E 139°43'0 0.0
2015-Jul-01 06:34N 35°27' E 139°43'0 0.0
2015-Jul-01 05:34N 35°27' E 139°43'0 0.0
2015-Jul-01 04:33N 35°27' E 139°43'0 0.0
2015-Jul-01 03:33N 35°27' E 139°43'2 2.2
2015-Jul-01 02:33N 35°26' E 139°45'5 4.9
2015-Jul-01 01:32N 35°21' E 139°45'8 8.2
2015-Jul-01 00:33N 35°14' E 139°47'9 9.4
2015-Jun-30 23:33N 35°05' E 139°43'1111.1
2015-Jun-30 22:32N 34°58' E 139°32'  
2015-Jun-28 12:25N 34°00' E 130°50'  

Dump ship's entire track history